WMKP/PEN METAR and TAF weather

Enter ICAO airport designator
Station Type Date Time Source
WMKP METAR 2021/05/12 05:00 UTC NOAA

WMKP 120500Z 22007KT 9999 FEW017CB 31/26 Q1008 NOSIG


Station Type Date Time Source
WMKP Decoded METAR 2021/05/12 05:00 UTC NOAA

Penang / Bayan Lepas, Malaysia (WMKP) 05-18N 100-16E 4M
May 12, 2021 - 01:00 AM EDT / 2021.05.12 0500 UTC
Wind: from the SW (220 degrees) at 8 MPH (7 KT):0
Visibility: greater than 7 mile(s):0
Sky conditions: mostly clear
Weather: Cumulonimbus clouds observed
Temperature: 87 F (31 C)
Heat index: 99.7 F (37.6 C):1
Dew Point: 78 F (26 C)
Relative Humidity: 74%
Pressure (altimeter): 29.77 in. Hg (1008 hPa)
ob: WMKP 120500Z 22007KT 9999 FEW017CB 31/26 Q1008 NOSIG
cycle: 5

Station Type Date Time Source
WMKP TAF 2021/05/12 06:15 UTC NOAA

TAF WMKP 120500Z 1206/1306 22008KT 9000 FEW020
TEMPO 1208/1213 4000 TSRA FEW010 FEW017CB
BECMG 1210/1212 VRB03KT 8000 FEW025

Example: see airport list